Monday, December 10, 2018, 10:05 PM EST
Back to Local

KHIE, Mt Washington Regional Airport

Location: Jefferson, NH, United States Lat: 44.367
Local Time: 10:05 PM EST ( 3:05 GMT) Lon: -71.55
Time Zone: US/Eastern Elev: 1072 ft

Show me the last for .
Show Decoded

2018-12-10 20:52 METAR KHIE 110152Z AUTO 00000KT 10SM CLR M17/M19 A3015 RMK AO2 SLP235 I1000
                 T11721194 =
2018-12-10 19:52 METAR KHIE 110052Z AUTO 00000KT 10SM CLR M16/M18 A3016 RMK AO2 SLP238 I1000
                 T11611183 =
2018-12-10 18:52 METAR KHIE 102352Z AUTO 00000KT 10SM CLR M15/M18 A3015 RMK AO2 SLP235 I1000
                 I6000 T11501178 11061 21150 51010 =
2018-12-10 17:52 METAR KHIE 102252Z AUTO 00000KT 10SM CLR M13/M16 A3014 RMK AO2 SLP231 T11331156
                 =
2018-12-10 16:52 METAR KHIE 102152Z AUTO 00000KT 10SM CLR M12/M15 A3014 RMK AO2 SLP227 T11171150
                 =
2018-12-10 15:52 METAR KHIE 102052Z AUTO 26003KT 9SM CLR M08/M14 A3012 RMK AO2 SLP219 T10781144
                 53009 =
2018-12-10 14:52 METAR KHIE 101952Z AUTO 31004KT 10SM CLR M07/M14 A3011 RMK AO2 SLP213 T10671144
                 =
2018-12-10 13:52 METAR KHIE 101852Z AUTO 30006KT 10SM FEW031 M07/M14 A3010 RMK AO2 SLP211
                 T10671139 =
2018-12-10 12:52 METAR KHIE 101752Z AUTO 30007KT 10SM SCT030 M07/M14 A3009 RMK AO2 SLP209 60000
                 T10721139 11056 21078 58008 =
2018-12-10 11:52 METAR KHIE 101652Z AUTO 31010KT 10SM BKN030 M07/M14 A3010 RMK AO2 SLP212
                 T10671139 =
2018-12-10 11:42 METAR KHIE 101642Z AUTO 30008KT 10SM FEW024 BKN030 M07/M14 A3011 RMK AO2
                 T10671139 =
2018-12-10 10:52 METAR KHIE 101552Z AUTO 31007KT 10SM OVC028 M07/M13 A3011 RMK AO2 SLP215
                 T10671133 =
2018-12-10 10:02 METAR KHIE 101502Z AUTO VRB04KT 10SM OVC025 M07/M12 A3012 RMK AO2 T10721117 =
2018-12-10 09:52 METAR KHIE 101452Z AUTO 26004KT 8SM SCT022 OVC030 M07/M12 A3012 RMK AO2 SLP217
                 60000 T10721117 51019 =
2018-12-10 08:52 METAR KHIE 101352Z AUTO 02003KT 10SM OVC036 M08/M11 A3011 RMK AO2 SLP215
                 T10781111 =
2018-12-10 07:52 METAR KHIE 101252Z AUTO 02004KT 9SM SCT020 SCT031 OVC038 M08/M11 A3008 RMK AO2
                 SNE26 SLP208 P0000 T10781106 =
2018-12-10 07:43 METAR KHIE 101243Z AUTO 36005KT 9SM BKN020 OVC037 M07/M11 A3008 RMK AO2 SNE26
                 P0000 T10721106 =
2018-12-10 07:13 METAR KHIE 101213Z AUTO 01006KT 5SM -SN FEW016 SCT022 OVC036 M07/M10 A3007 RMK
                 AO2 P0000 T10671100 =
2018-12-10 07:00 METAR KHIE 101200Z AUTO 02007KT 6SM -SN BKN016 OVC038 M07/M09 A3006 RMK AO2
                 P0000 T10671094 =
2018-12-10 06:52 METAR KHIE 101152Z AUTO 01006KT 6SM -SN SCT016 OVC036 M07/M09 A3006 RMK AO2
                 SNB47 SLP199 P0000 60000 T10671094 11028 21083 53014 =
2018-12-10 05:52 METAR KHIE 101052Z AUTO 00000KT 10SM FEW033 OVC043 M07/M09 A3004 RMK AO2 SLP193
                 T10671094 =
2018-12-10 04:52 METAR KHIE 100952Z AUTO 32005KT 10SM OVC044 M04/M08 A3003 RMK AO2 SNE14 SLP188
                 P0000 T10441078 =
2018-12-10 04:40 METAR KHIE 100940Z AUTO 35005KT 10SM SCT018 OVC044 M04/M08 A3003 RMK AO2 SNE14
                 P0000 T10441078 =
2018-12-10 04:22 METAR KHIE 100922Z AUTO 04004KT 10SM BKN016 OVC021 M04/M07 A3003 RMK AO2 SNE14
                 P0000 T10391067 =
2018-12-10 03:59 METAR KHIE 100859Z AUTO 36003KT 7SM -SN BKN014 BKN020 OVC028 M03/M06 A3002 RMK
                 AO2 P0000 T10331061 =
2018-12-10 03:52 METAR KHIE 100852Z AUTO 01004KT 4SM -SN SCT012 BKN017 OVC044 M03/M06 A3002 RMK
                 AO2 SNB06 SLP181 P0000 60000 T10331061 55003 =
2018-12-10 03:39 METAR KHIE 100839Z AUTO 00000KT 7SM -SN FEW016 BKN029 OVC038 M03/M06 A3001 RMK
                 AO2 SNB06 P0000 T10331061 =
2018-12-10 02:52 METAR KHIE 100752Z AUTO 23004KT 10SM FEW025 FEW030 OVC048 M03/M06 A3002 RMK AO2
                 SNE11 SLP180 P0000 T10331061 =
2018-12-10 01:52 METAR KHIE 100652Z AUTO 20004KT 7SM -SN OVC048 M03/M06 A3002 RMK AO2 SNB20
                 SLP181 P0000 T10331061 =
2018-12-10 01:11 METAR KHIE 100611Z AUTO 21006KT 10SM FEW023 OVC049 M03/M07 A3002 RMK AO2
                 T10331067 =
2018-12-10 00:52 METAR KHIE 100552Z AUTO VRB03KT 10SM BKN025 OVC049 M03/M07 A3003 RMK AO2
                 SNB19E36 SLP185 P0000 60000 T10331072 11022 21061 56004 =
2018-12-10 00:41 METAR KHIE 100541Z AUTO 25003KT 9SM BKN023 BKN029 OVC047 M03/M07 A3003 RMK AO2
                 SNB19E36 P0000 T10331072 =
2018-12-09 23:52 METAR KHIE 100452Z AUTO 26003KT 10SM FEW030 OVC050 M03/M08 A3003 RMK AO2
                 SNB32E42 SLP187 P0000 T10281078 410221178 =
2018-12-09 23:20 METAR KHIE 100420Z AUTO 23007KT 10SM FEW025 SCT031 OVC050 M03/M08 A3003 RMK AO2
                 T10281083 =
2018-12-09 22:52 METAR KHIE 100352Z AUTO 26006KT 10SM OVC028 M02/M08 A3003 RMK AO2 SLP189
                 T10221083 =
2018-12-09 22:23 METAR KHIE 100323Z AUTO 22006KT 10SM OVC030 M03/M08 A3003 RMK AO2 T10281083 =

Support USWX by starting your Amazon purchase here.